Time,TemperatureF,DewpointF,PressureIn,WindDirection,WindDirectionDegrees,WindSpeedMPH,WindSpeedGustMPH,Humidity,HourlyPrecipIn,Conditions,Clouds,dailyrainin,SolarRadiationWatts/m^2,SoftwareType,DateUTC
2013-04-05 00:02:00,54.3,51.4,30.26,WSW,242,4.0,6.0,90,0.00,,,0.00,0.0,meteohub,2013-04-05 07:02:00,
2013-04-05 00:07:00,54.3,51.4,30.26,West,269,5.0,6.0,90,0.00,,,0.00,0.0,meteohub,2013-04-05 07:07:00,
2013-04-05 00:17:00,54.5,51.3,30.26,West,279,5.0,8.0,89,0.00,,,0.00,0.0,meteohub,2013-04-05 07:17:00,
2013-04-05 00:22:00,54.5,51.3,30.26,WNW,284,3.0,8.0,89,0.00,,,0.00,0.0,meteohub,2013-04-05 07:22:00,
2013-04-05 00:27:00,54.7,51.4,30.26,WSW,250,1.0,9.0,89,0.00,,,0.00,0.0,meteohub,2013-04-05 07:27:00,
2013-04-05 00:32:00,54.7,51.4,30.26,WSW,252,3.0,9.0,89,0.00,,,0.00,0.0,meteohub,2013-04-05 07:32:00,
2013-04-05 00:37:00,54.5,51.3,30.26,West,266,1.0,9.0,89,0.00,,,0.00,0.0,meteohub,2013-04-05 07:37:00,
2013-04-05 00:42:00,54.7,51.3,30.26,WSW,257,2.0,7.0,88,0.00,,,0.00,0.0,meteohub,2013-04-05 07:42:00,
2013-04-05 00:52:00,54.5,51.3,30.27,SW,236,2.0,9.0,89,0.00,,,0.00,0.0,meteohub,2013-04-05 07:52:00,
2013-04-05 01:02:00,54.3,50.9,30.27,WSW,256,3.0,7.0,88,0.00,,,0.00,0.0,meteohub,2013-04-05 08:02:00,
2013-04-05 01:12:00,54.3,50.2,30.27,WSW,237,3.0,7.0,86,0.00,,,0.00,0.0,meteohub,2013-04-05 08:12:00,
2013-04-05 01:22:00,54.3,50.2,30.27,WSW,243,0.0,9.0,86,0.00,,,0.00,0.0,meteohub,2013-04-05 08:22:00,
2013-04-05 01:27:00,54.3,50.2,30.27,West,260,0.0,9.0,86,0.00,,,0.00,0.0,meteohub,2013-04-05 08:27:00,
2013-04-05 01:32:00,54.3,50.2,30.27,SW,230,0.0,6.0,86,0.00,,,0.00,0.0,meteohub,2013-04-05 08:32:00,
2013-04-05 01:37:00,54.3,50.5,30.27,WSW,247,2.0,6.0,87,0.00,,,0.00,0.0,meteohub,2013-04-05 08:37:00,
2013-04-05 01:42:00,54.3,50.5,30.27,WSW,248,1.0,6.0,87,0.00,,,0.00,0.0,meteohub,2013-04-05 08:42:00,
2013-04-05 01:52:00,54.1,50.4,30.27,WSW,247,0.0,4.0,87,0.00,,,0.00,0.0,meteohub,2013-04-05 08:52:00,
2013-04-05 01:57:00,54.1,50.4,30.27,WSW,247,0.0,3.0,87,0.00,,,0.00,0.0,meteohub,2013-04-05 08:57:00,
2013-04-05 02:07:00,54.1,50.4,30.27,WSW,247,0.0,1.0,87,0.00,,,0.00,0.0,meteohub,2013-04-05 09:07:00,
2013-04-05 02:12:00,54.1,50.4,30.27,WSW,247,0.0,1.0,87,0.00,,,0.00,0.0,meteohub,2013-04-05 09:12:00,
2013-04-05 02:22:00,54.1,50.7,30.27,WSW,247,0.0,1.0,88,0.00,,,0.00,0.0,meteohub,2013-04-05 09:22:00,
2013-04-05 02:27:00,54.1,50.7,30.27,WSW,247,0.0,1.0,88,0.00,,,0.00,0.0,meteohub,2013-04-05 09:27:00,
2013-04-05 02:37:00,54.0,50.5,30.27,WSW,247,0.0,0.0,88,0.00,,,0.00,0.0,meteohub,2013-04-05 09:37:00,
2013-04-05 02:42:00,54.0,50.5,30.27,WSW,247,0.0,0.0,88,0.00,,,0.00,0.0,meteohub,2013-04-05 09:42:00,
2013-04-05 02:47:00,54.0,50.5,30.27,WSW,247,0.0,1.0,88,0.00,,,0.00,0.0,meteohub,2013-04-05 09:47:00,
2013-04-05 02:52:00,54.0,50.5,30.27,WSW,247,0.0,1.0,88,0.00,,,0.00,0.0,meteohub,2013-04-05 09:52:00,
2013-04-05 02:57:00,54.0,50.5,30.27,WSW,247,0.0,1.0,88,0.00,,,0.00,0.0,meteohub,2013-04-05 09:57:00,
2013-04-05 03:02:00,54.0,50.7,30.27,WSW,247,0.0,0.0,89,0.00,,,0.00,0.0,meteohub,2013-04-05 10:02:00,
2013-04-05 03:07:00,53.8,50.5,30.27,WSW,247,0.0,0.0,89,0.00,,,0.00,0.0,meteohub,2013-04-05 10:07:00,
2013-04-05 03:12:00,53.8,50.5,30.27,WSW,247,0.0,0.0,89,0.00,,,0.00,0.0,meteohub,2013-04-05 10:12:00,
2013-04-05 03:17:00,53.8,50.5,30.27,WSW,247,0.0,0.0,89,0.00,,,0.00,0.0,meteohub,2013-04-05 10:17:00,
2013-04-05 03:27:00,53.8,50.5,30.27,WSW,247,0.0,0.0,89,0.00,,,0.00,0.0,meteohub,2013-04-05 10:27:00,
2013-04-05 03:37:00,54.0,50.5,30.27,WSW,247,0.0,0.0,88,0.00,,,0.00,0.0,meteohub,2013-04-05 10:37:00,
2013-04-05 03:42:00,54.0,50.7,30.27,WSW,247,0.0,0.0,89,0.00,,,0.00,0.0,meteohub,2013-04-05 10:42:00,
2013-04-05 03:47:00,54.0,50.5,30.27,WSW,247,0.0,0.0,88,0.00,,,0.00,0.0,meteohub,2013-04-05 10:47:00,
2013-04-05 03:52:00,54.0,50.5,30.27,WSW,247,0.0,0.0,88,0.00,,,0.00,0.0,meteohub,2013-04-05 10:52:00,
2013-04-05 04:02:00,54.0,50.5,30.27,WSW,247,0.0,1.0,88,0.00,,,0.00,0.0,meteohub,2013-04-05 11:02:00,
2013-04-05 04:07:00,54.0,50.7,30.26,WSW,247,0.0,0.0,89,0.00,,,0.00,0.0,meteohub,2013-04-05 11:07:00,
2013-04-05 04:12:00,54.0,50.7,30.26,WSW,247,0.0,1.0,89,0.00,,,0.00,0.0,meteohub,2013-04-05 11:12:00,
2013-04-05 04:22:00,54.1,50.9,30.26,WSW,247,0.0,1.0,89,0.00,,,0.00,0.0,meteohub,2013-04-05 11:22:00,
2013-04-05 04:27:00,54.1,50.7,30.26,WSW,247,0.0,1.0,88,0.00,,,0.00,0.0,meteohub,2013-04-05 11:27:00,
2013-04-05 04:37:00,54.1,50.7,30.27,WSW,248,0.0,3.0,88,0.00,,,0.00,0.0,meteohub,2013-04-05 11:37:00,
2013-04-05 04:42:00,54.1,50.9,30.27,WSW,248,0.0,3.0,89,0.00,,,0.00,0.0,meteohub,2013-04-05 11:42:00,
2013-04-05 04:47:00,54.1,50.9,30.27,WSW,248,0.0,1.0,89,0.00,,,0.00,0.0,meteohub,2013-04-05 11:47:00,
2013-04-05 04:52:00,54.0,50.7,30.27,West,263,0.0,1.0,89,0.00,,,0.00,0.0,meteohub,2013-04-05 11:52:00,
2013-04-05 04:57:00,54.0,50.7,30.27,West,263,0.0,4.0,89,0.00,,,0.00,0.0,meteohub,2013-04-05 11:57:00,
2013-04-05 05:02:00,53.8,50.9,30.27,West,263,0.0,4.0,90,0.00,,,0.00,0.0,meteohub,2013-04-05 12:02:00,
2013-04-05 05:12:00,53.4,50.9,30.27,West,263,0.0,2.0,91,0.00,,,0.00,0.0,meteohub,2013-04-05 12:12:00,
2013-04-05 05:17:00,53.2,50.9,30.27,West,263,0.0,1.0,92,0.01,,,0.01,0.0,meteohub,2013-04-05 12:17:00,
2013-04-05 05:22:00,53.2,50.9,30.27,West,263,0.0,1.0,92,0.02,,,0.02,0.0,meteohub,2013-04-05 12:22:00,
2013-04-05 05:27:00,53.2,50.9,30.27,West,263,0.0,1.0,92,0.03,,,0.03,0.0,meteohub,2013-04-05 12:27:00,
2013-04-05 05:32:00,53.2,51.3,30.27,West,263,1.0,2.0,93,0.04,,,0.04,0.0,meteohub,2013-04-05 12:32:00,
2013-04-05 05:37:00,53.2,51.3,30.27,West,263,0.0,2.0,93,0.04,,,0.04,0.0,meteohub,2013-04-05 12:37:00,
2013-04-05 05:42:00,53.1,51.1,30.27,West,263,0.0,2.0,93,0.04,,,0.04,0.0,meteohub,2013-04-05 12:42:00,
2013-04-05 05:47:00,53.1,51.1,30.27,West,263,0.0,2.0,93,0.04,,,0.04,0.0,meteohub,2013-04-05 12:47:00,
2013-04-05 05:52:00,53.1,51.1,30.27,West,263,0.0,2.0,93,0.04,,,0.04,0.0,meteohub,2013-04-05 12:52:00,
2013-04-05 05:57:00,53.1,51.1,30.27,West,263,0.0,0.0,93,0.04,,,0.04,0.0,meteohub,2013-04-05 12:57:00,
2013-04-05 06:07:00,53.1,51.4,30.27,West,263,0.0,0.0,94,0.04,,,0.04,0.0,meteohub,2013-04-05 13:07:00,
2013-04-05 06:12:00,53.1,51.4,30.27,West,263,0.0,0.0,94,0.03,,,0.04,0.0,meteohub,2013-04-05 13:12:00,
2013-04-05 06:17:00,53.1,51.4,30.27,West,263,0.0,1.0,94,0.03,,,0.04,0.0,meteohub,2013-04-05 13:17:00,
2013-04-05 06:22:00,52.9,51.3,30.27,West,269,0.0,1.0,94,0.02,,,0.04,0.0,meteohub,2013-04-05 13:22:00,
2013-04-05 06:27:00,52.7,51.1,30.28,West,269,0.0,2.0,94,0.01,,,0.04,0.0,meteohub,2013-04-05 13:27:00,
2013-04-05 06:37:00,52.3,50.7,30.28,West,269,0.0,1.0,94,0.00,,,0.04,0.0,meteohub,2013-04-05 13:37:00,
2013-04-05 06:42:00,52.3,50.7,30.28,West,269,0.0,1.0,94,0.00,,,0.04,0.0,meteohub,2013-04-05 13:42:00,
2013-04-05 06:47:00,52.3,50.7,30.28,West,269,0.0,1.0,94,0.00,,,0.04,0.0,meteohub,2013-04-05 13:47:00,
2013-04-05 06:52:00,52.3,50.7,30.27,West,269,0.0,1.0,94,0.00,,,0.04,0.0,meteohub,2013-04-05 13:52:00,
2013-04-05 06:57:00,52.3,50.7,30.27,West,269,0.0,1.0,94,0.00,,,0.04,0.0,meteohub,2013-04-05 13:57:00,
2013-04-05 07:02:00,52.5,50.9,30.27,West,269,0.0,1.0,94,0.00,,,0.04,5.0,meteohub,2013-04-05 14:02:00,
2013-04-05 07:12:00,52.5,50.9,30.27,West,269,0.0,1.0,94,0.00,,,0.04,12.0,meteohub,2013-04-05 14:12:00,
2013-04-05 07:22:00,52.5,50.9,30.28,West,269,0.0,0.0,94,0.00,,,0.04,21.0,meteohub,2013-04-05 14:22:00,
2013-04-05 07:33:00,53.1,51.4,30.28,West,261,0.0,1.0,94,0.00,,,0.04,33.0,meteohub,2013-04-05 14:33:00,
2013-04-05 07:42:00,53.2,51.6,30.29,West,261,0.0,3.0,94,0.00,,,0.04,40.0,meteohub,2013-04-05 14:42:00,
2013-04-05 07:47:00,53.4,51.8,30.29,West,261,0.0,0.0,94,0.00,,,0.04,46.0,meteohub,2013-04-05 14:47:00,
2013-04-05 07:52:00,53.4,51.8,30.29,West,261,0.0,0.0,94,0.00,,,0.04,46.0,meteohub,2013-04-05 14:52:00,
2013-04-05 07:57:00,53.8,52.2,30.29,West,261,0.0,2.0,94,0.00,,,0.04,49.0,meteohub,2013-04-05 14:57:00,
2013-04-05 08:02:00,53.8,52.2,30.30,West,261,0.0,2.0,94,0.00,,,0.04,54.0,meteohub,2013-04-05 15:02:00,
2013-04-05 08:12:00,53.8,52.2,30.30,West,270,1.0,3.0,94,0.00,,,0.04,58.0,meteohub,2013-04-05 15:12:00,
2013-04-05 08:17:00,53.8,52.2,30.30,West,270,0.0,4.0,94,0.00,,,0.04,56.0,meteohub,2013-04-05 15:17:00,
2013-04-05 08:27:00,53.4,51.8,30.31,West,261,0.0,4.0,94,0.00,,,0.04,54.0,meteohub,2013-04-05 15:27:00,
2013-04-05 08:32:00,53.4,51.8,30.31,West,261,1.0,4.0,94,0.00,,,0.04,51.0,meteohub,2013-04-05 15:32:00,
2013-04-05 08:42:00,54.0,52.3,30.31,West,261,0.0,4.0,94,0.00,,,0.04,84.0,meteohub,2013-04-05 15:42:00,
2013-04-05 08:47:00,54.0,52.3,30.31,West,261,2.0,2.0,94,0.00,,,0.04,62.0,meteohub,2013-04-05 15:47:00,
2013-04-05 08:52:00,54.0,52.0,30.31,WSW,255,1.0,3.0,93,0.00,,,0.04,91.0,meteohub,2013-04-05 15:52:00,
2013-04-05 09:02:00,54.3,52.3,30.31,SW,217,2.0,4.0,93,0.00,,,0.04,132.0,meteohub,2013-04-05 16:02:00,
2013-04-05 09:12:00,54.9,52.5,30.30,West,259,2.0,4.0,92,0.00,,,0.04,113.0,meteohub,2013-04-05 16:12:00,
2013-04-05 09:22:00,55.0,52.5,30.30,SW,221,1.0,5.0,91,0.00,,,0.04,102.0,meteohub,2013-04-05 16:22:00,
2013-04-05 09:32:00,55.4,52.5,30.30,WSW,256,3.0,5.0,90,0.00,,,0.04,163.0,meteohub,2013-04-05 16:32:00,
2013-04-05 09:37:00,55.8,52.9,30.30,WSW,246,1.0,5.0,90,0.00,,,0.04,172.0,meteohub,2013-04-05 16:37:00,
2013-04-05 09:42:00,56.1,53.2,30.30,West,262,1.0,6.0,90,0.00,,,0.04,134.0,meteohub,2013-04-05 16:42:00,
2013-04-05 09:52:00,56.1,52.3,30.30,WSW,255,1.0,5.0,87,0.00,,,0.04,98.0,meteohub,2013-04-05 16:52:00,
2013-04-05 09:57:00,56.5,52.9,30.30,WSW,238,3.0,5.0,88,0.00,,,0.04,97.0,meteohub,2013-04-05 16:57:00,
2013-04-05 10:07:00,56.8,52.3,30.30,SW,225,4.0,6.0,85,0.00,,,0.04,125.0,meteohub,2013-04-05 17:07:00,
2013-04-05 10:17:00,57.7,53.2,30.30,West,263,1.0,6.0,85,0.00,,,0.04,218.0,meteohub,2013-04-05 17:17:00,
2013-04-05 10:22:00,58.5,53.2,30.30,WSW,242,4.0,5.0,83,0.00,,,0.04,174.0,meteohub,2013-04-05 17:22:00,
2013-04-05 10:27:00,57.9,51.4,30.30,West,273,2.0,8.0,79,0.01,,,0.05,167.0,meteohub,2013-04-05 17:27:00,
2013-04-05 10:32:00,58.1,52.0,30.30,WSW,253,5.0,8.0,80,0.01,,,0.05,190.0,meteohub,2013-04-05 17:32:00,
2013-04-05 10:37:00,57.9,51.8,30.31,WSW,246,3.0,8.0,80,0.01,,,0.05,183.0,meteohub,2013-04-05 17:37:00,
2013-04-05 10:47:00,58.5,52.3,30.31,West,270,4.0,8.0,80,0.01,,,0.05,251.0,meteohub,2013-04-05 17:47:00,
2013-04-05 10:52:00,58.3,52.2,30.31,WSW,251,3.0,9.0,80,0.01,,,0.05,220.0,meteohub,2013-04-05 17:52:00,
2013-04-05 10:57:00,58.5,52.7,30.31,WSW,244,4.0,10.0,81,0.01,,,0.05,301.0,meteohub,2013-04-05 17:57:00,
2013-04-05 11:02:00,58.8,53.1,30.31,West,261,6.0,11.0,81,0.01,,,0.05,195.0,meteohub,2013-04-05 18:02:00,
2013-04-05 11:07:00,58.3,52.2,30.31,WNW,286,2.0,11.0,80,0.01,,,0.05,162.0,meteohub,2013-04-05 18:07:00,
2013-04-05 11:17:00,57.7,51.6,30.31,WNW,291,1.0,9.0,80,0.01,,,0.05,204.0,meteohub,2013-04-05 18:17:00,
2013-04-05 11:22:00,57.6,51.1,30.32,WSW,253,8.0,9.0,79,0.01,,,0.05,165.0,meteohub,2013-04-05 18:22:00,
2013-04-05 11:32:00,57.6,52.2,30.32,WSW,244,2.0,11.0,82,0.00,,,0.05,229.0,meteohub,2013-04-05 18:32:00,
2013-04-05 11:42:00,58.3,52.5,30.32,WSW,256,5.0,7.0,81,0.00,,,0.05,181.0,meteohub,2013-04-05 18:42:00,
2013-04-05 11:52:00,58.3,51.8,30.32,West,263,2.0,10.0,79,0.00,,,0.05,316.0,meteohub,2013-04-05 18:52:00,
2013-04-05 11:57:00,58.6,51.8,30.32,WSW,246,7.0,9.0,78,0.00,,,0.05,227.0,meteohub,2013-04-05 18:57:00,
2013-04-05 12:02:00,58.5,51.3,30.32,WSW,244,3.0,9.0,77,0.00,,,0.05,214.0,meteohub,2013-04-05 19:02:00,
2013-04-05 12:07:00,58.3,51.1,30.32,SW,225,8.0,12.0,77,0.00,,,0.05,211.0,meteohub,2013-04-05 19:07:00,
2013-04-05 12:12:00,58.5,52.0,30.32,NW,304,3.0,12.0,79,0.00,,,0.05,352.0,meteohub,2013-04-05 19:12:00,
2013-04-05 12:22:00,58.3,50.7,30.33,WSW,254,2.0,12.0,76,0.00,,,0.05,294.0,meteohub,2013-04-05 19:22:00,
2013-04-05 12:27:00,58.8,51.6,30.32,WSW,238,3.0,12.0,77,0.00,,,0.05,258.0,meteohub,2013-04-05 19:27:00,
2013-04-05 12:32:00,58.8,51.3,30.32,WSW,254,5.0,12.0,76,0.00,,,0.05,114.0,meteohub,2013-04-05 19:32:00,
2013-04-05 12:42:00,58.3,50.4,30.33,West,273,3.0,11.0,75,0.00,,,0.05,186.0,meteohub,2013-04-05 19:42:00,
2013-04-05 12:47:00,58.3,50.7,30.33,West,277,1.0,11.0,76,0.00,,,0.05,176.0,meteohub,2013-04-05 19:47:00,
2013-04-05 12:52:00,58.5,51.3,30.32,WSW,244,9.0,11.0,77,0.00,,,0.05,155.0,meteohub,2013-04-05 19:52:00,
2013-04-05 13:02:00,58.8,51.3,30.32,WSW,245,8.0,10.0,76,0.00,,,0.05,216.0,meteohub,2013-04-05 20:02:00,
2013-04-05 13:07:00,58.6,51.8,30.32,SW,218,4.0,10.0,78,0.00,,,0.05,176.0,meteohub,2013-04-05 20:07:00,
2013-04-05 13:17:00,58.3,51.1,30.31,WSW,242,6.0,9.0,77,0.00,,,0.05,197.0,meteohub,2013-04-05 20:17:00,
2013-04-05 13:27:00,58.1,51.3,30.30,WSW,240,2.0,8.0,78,0.00,,,0.05,153.0,meteohub,2013-04-05 20:27:00,
2013-04-05 13:32:00,58.3,52.2,30.30,WSW,247,2.0,8.0,80,0.00,,,0.05,181.0,meteohub,2013-04-05 20:32:00,
2013-04-05 13:37:00,58.3,52.2,30.30,WSW,253,2.0,8.0,80,0.00,,,0.05,281.0,meteohub,2013-04-05 20:37:00,
2013-04-05 13:47:00,58.6,52.2,30.30,West,259,1.0,6.0,79,0.00,,,0.05,250.0,meteohub,2013-04-05 20:47:00,
2013-04-05 13:52:00,58.8,52.3,30.29,WSW,238,5.0,6.0,79,0.00,,,0.05,209.0,meteohub,2013-04-05 20:52:00,
2013-04-05 13:57:00,58.5,51.6,30.30,WNW,297,3.0,6.0,78,0.00,,,0.05,160.0,meteohub,2013-04-05 20:57:00,
2013-04-05 14:02:00,58.3,51.4,30.30,SW,215,4.0,7.0,78,0.00,,,0.05,297.0,meteohub,2013-04-05 21:02:00,
2013-04-05 14:07:00,59.0,52.5,30.30,West,272,4.0,7.0,79,0.00,,,0.05,234.0,meteohub,2013-04-05 21:07:00,
2013-04-05 14:12:00,58.6,51.4,30.30,WSW,252,4.0,8.0,77,0.00,,,0.05,165.0,meteohub,2013-04-05 21:12:00,
2013-04-05 14:22:00,58.3,51.8,30.30,WSW,257,3.0,9.0,79,0.00,,,0.05,183.0,meteohub,2013-04-05 21:22:00,
2013-04-05 14:27:00,58.3,52.2,30.30,SW,225,2.0,9.0,80,0.00,,,0.05,199.0,meteohub,2013-04-05 21:27:00,
2013-04-05 14:37:00,58.3,51.1,30.30,WSW,254,2.0,7.0,77,0.00,,,0.05,174.0,meteohub,2013-04-05 21:37:00,
2013-04-05 14:42:00,58.3,50.7,30.30,SW,235,8.0,8.0,76,0.00,,,0.05,206.0,meteohub,2013-04-05 21:42:00,
2013-04-05 14:47:00,58.5,51.6,30.30,WSW,255,3.0,9.0,78,0.00,,,0.05,258.0,meteohub,2013-04-05 21:47:00,
2013-04-05 14:57:00,58.8,50.9,30.29,SSW,213,4.0,9.0,75,0.00,,,0.05,244.0,meteohub,2013-04-05 21:57:00,
2013-04-05 15:02:00,58.6,50.4,30.30,WNW,302,2.0,7.0,74,0.00,,,0.05,325.0,meteohub,2013-04-05 22:02:00,
2013-04-05 15:12:00,60.4,54.5,30.29,WSW,240,2.0,9.0,81,0.00,,,0.05,278.0,meteohub,2013-04-05 22:12:00,
2013-04-05 15:17:00,60.3,51.6,30.29,WSW,254,1.0,9.0,73,0.00,,,0.05,271.0,meteohub,2013-04-05 22:17:00,
2013-04-05 15:22:00,59.4,52.2,30.29,WSW,238,1.0,9.0,77,0.00,,,0.05,388.0,meteohub,2013-04-05 22:22:00,
2013-04-05 15:27:00,58.6,50.4,30.29,West,262,5.0,8.0,74,0.00,,,0.05,204.0,meteohub,2013-04-05 22:27:00,
2013-04-05 15:37:00,58.5,51.6,30.29,WSW,256,2.0,9.0,78,0.00,,,0.05,163.0,meteohub,2013-04-05 22:37:00,
2013-04-05 15:42:00,58.3,50.7,30.29,WSW,246,4.0,9.0,76,0.00,,,0.05,123.0,meteohub,2013-04-05 22:42:00,
2013-04-05 15:52:00,58.3,51.8,30.29,WSW,258,4.0,10.0,79,0.00,,,0.05,146.0,meteohub,2013-04-05 22:52:00,
2013-04-05 15:57:00,58.5,51.6,30.29,West,268,3.0,10.0,78,0.00,,,0.05,176.0,meteohub,2013-04-05 22:57:00,
2013-04-05 16:07:00,58.5,51.3,30.29,WSW,252,7.0,8.0,77,0.00,,,0.05,236.0,meteohub,2013-04-05 23:07:00,
2013-04-05 16:12:00,59.5,52.7,30.29,SSW,196,6.0,11.0,78,0.00,,,0.05,406.0,meteohub,2013-04-05 23:12:00,
2013-04-05 16:22:00,59.5,51.6,30.28,WSW,248,5.0,11.0,75,0.00,,,0.05,325.0,meteohub,2013-04-05 23:22:00,
2013-04-05 16:27:00,60.1,52.2,30.28,West,265,5.0,9.0,75,0.00,,,0.05,784.0,meteohub,2013-04-05 23:27:00,
2013-04-05 16:32:00,61.3,54.1,30.28,WSW,252,4.0,9.0,77,0.00,,,0.05,698.0,meteohub,2013-04-05 23:32:00,
2013-04-05 16:42:00,61.3,53.8,30.28,NW,317,6.0,12.0,76,0.00,,,0.05,555.0,meteohub,2013-04-05 23:42:00,
2013-04-05 16:47:00,61.5,53.6,30.28,West,279,5.0,12.0,75,0.00,,,0.05,540.0,meteohub,2013-04-05 23:47:00,
2013-04-05 16:52:00,61.3,53.4,30.28,West,275,5.0,12.0,75,0.00,,,0.05,536.0,meteohub,2013-04-05 23:52:00,
2013-04-05 16:57:00,61.3,52.2,30.27,WSW,246,6.0,9.0,72,0.00,,,0.05,459.0,meteohub,2013-04-05 23:57:00,
2013-04-05 17:02:00,60.6,52.0,30.27,WSW,246,7.0,9.0,73,0.00,,,0.05,466.0,meteohub,2013-04-06 00:02:00,
2013-04-05 17:07:00,60.4,52.2,30.27,SW,219,3.0,9.0,74,0.00,,,0.00,448.0,meteohub,2013-04-06 00:07:00,
2013-04-05 17:12:00,61.3,53.8,30.28,NW,311,2.0,9.0,76,0.00,,,0.00,547.0,meteohub,2013-04-06 00:12:00,
2013-04-05 17:17:00,61.9,52.7,30.29,WNW,297,4.0,9.0,72,0.00,,,0.00,515.0,meteohub,2013-04-06 00:17:00,
2013-04-05 17:27:00,61.3,51.8,30.28,WSW,242,4.0,9.0,71,0.00,,,0.00,469.0,meteohub,2013-04-06 00:27:00,
2013-04-05 17:32:00,61.0,52.7,30.28,West,275,5.0,9.0,74,0.00,,,0.00,475.0,meteohub,2013-04-06 00:32:00,
2013-04-05 17:42:00,60.8,52.2,30.28,WSW,258,4.0,11.0,73,0.00,,,0.00,295.0,meteohub,2013-04-06 00:42:00,
2013-04-05 17:47:00,59.7,51.1,30.28,WSW,246,5.0,11.0,73,0.00,,,0.00,167.0,meteohub,2013-04-06 00:47:00,
2013-04-05 17:52:00,59.5,51.6,30.28,WNW,283,3.0,12.0,75,0.00,,,0.00,396.0,meteohub,2013-04-06 00:52:00,
2013-04-05 17:57:00,59.7,50.7,30.28,WSW,254,4.0,12.0,72,0.00,,,0.00,339.0,meteohub,2013-04-06 00:57:00,
2013-04-05 18:02:00,59.7,51.4,30.28,SW,227,4.0,12.0,74,0.00,,,0.00,211.0,meteohub,2013-04-06 01:02:00,
2013-04-05 18:07:00,59.4,50.7,30.27,West,259,5.0,9.0,73,0.00,,,0.00,93.0,meteohub,2013-04-06 01:07:00,
2013-04-05 18:12:00,58.3,50.4,30.27,West,261,7.0,9.0,75,0.00,,,0.00,67.0,meteohub,2013-04-06 01:12:00,
2013-04-05 18:17:00,57.6,50.0,30.27,West,261,4.0,9.0,76,0.00,,,0.00,58.0,meteohub,2013-04-06 01:17:00,
2013-04-05 18:22:00,57.2,50.0,30.27,West,269,3.0,8.0,77,0.00,,,0.00,56.0,meteohub,2013-04-06 01:22:00,
2013-04-05 18:32:00,57.0,50.2,30.28,WSW,246,1.0,8.0,78,0.00,,,0.00,60.0,meteohub,2013-04-06 01:32:00,
2013-04-05 18:37:00,57.0,49.8,30.29,WSW,244,5.0,8.0,77,0.00,,,0.00,28.0,meteohub,2013-04-06 01:37:00,
2013-04-05 18:42:00,56.8,49.6,30.30,SW,223,4.0,10.0,77,0.00,,,0.00,25.0,meteohub,2013-04-06 01:42:00,
2013-04-05 18:52:00,56.3,49.5,30.28,WSW,249,7.0,10.0,78,0.00,,,0.00,33.0,meteohub,2013-04-06 01:52:00,
2013-04-05 19:02:00,55.9,49.5,30.28,SW,226,2.0,10.0,79,0.00,,,0.00,35.0,meteohub,2013-04-06 02:02:00,
2013-04-05 19:07:00,55.8,49.6,30.27,WSW,240,1.0,10.0,80,0.00,,,0.00,21.0,meteohub,2013-04-06 02:07:00,
2013-04-05 19:12:00,55.6,49.5,30.27,WSW,250,4.0,8.0,80,0.00,,,0.00,18.0,meteohub,2013-04-06 02:12:00,
2013-04-05 19:17:00,55.6,49.8,30.27,SW,219,6.0,7.0,81,0.00,,,0.00,14.0,meteohub,2013-04-06 02:17:00,
2013-04-05 19:27:00,55.4,50.0,30.27,WSW,257,4.0,7.0,82,0.00,,,0.00,7.0,meteohub,2013-04-06 02:27:00,
2013-04-05 19:37:00,54.9,49.1,30.27,WSW,257,3.0,10.0,81,0.00,,,0.00,0.0,meteohub,2013-04-06 02:37:00,
2013-04-05 19:42:00,54.7,48.9,30.28,SW,236,4.0,10.0,81,0.00,,,0.00,0.0,meteohub,2013-04-06 02:42:00,
2013-04-05 19:47:00,54.3,48.9,30.28,NW,317,1.0,10.0,82,0.00,,,0.00,0.0,meteohub,2013-04-06 02:47:00,
2013-04-05 19:57:00,54.0,48.9,30.28,WSW,241,3.0,8.0,83,0.00,,,0.00,0.0,meteohub,2013-04-06 02:57:00,
2013-04-05 20:07:00,53.6,48.9,30.28,SW,232,2.0,7.0,84,0.00,,,0.00,0.0,meteohub,2013-04-06 03:07:00,
2013-04-05 20:12:00,53.2,48.9,30.28,WSW,257,0.0,7.0,85,0.00,,,0.00,0.0,meteohub,2013-04-06 03:12:00,
2013-04-05 20:17:00,53.2,48.9,30.28,WSW,250,1.0,5.0,85,0.00,,,0.00,0.0,meteohub,2013-04-06 03:17:00,
2013-04-05 20:27:00,53.1,48.7,30.29,SW,232,6.0,6.0,85,0.00,,,0.00,0.0,meteohub,2013-04-06 03:27:00,
2013-04-05 20:32:00,53.2,48.9,30.29,West,263,5.0,9.0,85,0.00,,,0.00,0.0,meteohub,2013-04-06 03:32:00,
2013-04-05 20:37:00,53.1,48.7,30.29,WSW,242,1.0,9.0,85,0.00,,,0.00,0.0,meteohub,2013-04-06 03:37:00,
2013-04-05 20:47:00,53.1,48.7,30.29,West,272,4.0,11.0,85,0.00,,,0.00,0.0,meteohub,2013-04-06 03:47:00,
2013-04-05 20:52:00,53.1,48.9,30.30,WSW,253,8.0,11.0,86,0.00,,,0.00,0.0,meteohub,2013-04-06 03:52:00,
2013-04-05 21:02:00,53.1,48.9,30.31,West,263,6.0,10.0,86,0.00,,,0.00,0.0,meteohub,2013-04-06 04:02:00,
2013-04-05 21:07:00,53.1,48.9,30.31,West,262,4.0,10.0,86,0.00,,,0.00,0.0,meteohub,2013-04-06 04:07:00,
2013-04-05 21:12:00,53.2,49.1,30.31,West,270,6.0,10.0,86,0.00,,,0.00,0.0,meteohub,2013-04-06 04:12:00,
2013-04-05 21:17:00,53.2,49.1,30.31,WSW,248,1.0,10.0,86,0.00,,,0.00,0.0,meteohub,2013-04-06 04:17:00,
2013-04-05 21:22:00,53.2,49.5,30.31,West,274,2.0,10.0,87,0.00,,,0.00,0.0,meteohub,2013-04-06 04:22:00,
2013-04-05 21:27:00,53.1,49.3,30.31,WSW,245,7.0,9.0,87,0.00,,,0.00,0.0,meteohub,2013-04-06 04:27:00,
2013-04-05 21:32:00,53.1,49.3,30.31,WSW,238,3.0,8.0,87,0.00,,,0.00,0.0,meteohub,2013-04-06 04:32:00,
2013-04-05 21:37:00,52.9,49.5,30.31,WSW,252,2.0,10.0,88,0.00,,,0.00,0.0,meteohub,2013-04-06 04:37:00,
2013-04-05 21:47:00,52.3,48.9,30.32,WNW,284,1.0,10.0,88,0.00,,,0.00,0.0,meteohub,2013-04-06 04:47:00,
2013-04-05 21:57:00,52.3,48.9,30.32,WSW,244,1.0,9.0,88,0.00,,,0.00,0.0,meteohub,2013-04-06 04:57:00,
2013-04-05 22:07:00,52.2,48.7,30.32,West,277,1.0,5.0,88,0.00,,,0.00,0.0,meteohub,2013-04-06 05:07:00,
2013-04-05 22:12:00,52.0,48.9,30.32,WSW,237,3.0,6.0,89,0.00,,,0.00,0.0,meteohub,2013-04-06 05:12:00,
2013-04-05 22:22:00,52.0,48.9,30.32,West,269,2.0,6.0,89,0.00,,,0.00,0.0,meteohub,2013-04-06 05:22:00,
2013-04-05 22:32:00,52.0,48.6,30.32,WSW,246,2.0,6.0,88,0.00,,,0.00,0.0,meteohub,2013-04-06 05:32:00,
2013-04-05 22:37:00,52.2,48.7,30.32,WSW,240,0.0,7.0,88,0.00,,,0.00,0.0,meteohub,2013-04-06 05:37:00,
2013-04-05 22:47:00,52.2,48.7,30.32,WSW,246,0.0,5.0,88,0.00,,,0.00,0.0,meteohub,2013-04-06 05:47:00,
2013-04-05 22:52:00,52.2,48.7,30.32,WSW,250,2.0,5.0,88,0.00,,,0.00,0.0,meteohub,2013-04-06 05:52:00,
2013-04-05 22:57:00,52.2,48.7,30.32,WSW,246,0.0,3.0,88,0.00,,,0.00,0.0,meteohub,2013-04-06 05:57:00,
2013-04-05 23:02:00,52.0,48.6,30.32,WSW,245,0.0,3.0,88,0.00,,,0.00,0.0,meteohub,2013-04-06 06:02:00,
2013-04-05 23:12:00,52.2,48.7,30.33,WSW,244,0.0,3.0,88,0.00,,,0.00,0.0,meteohub,2013-04-06 06:12:00,
2013-04-05 23:17:00,52.2,48.7,30.32,WSW,244,0.0,3.0,88,0.00,,,0.00,0.0,meteohub,2013-04-06 06:17:00,
2013-04-05 23:22:00,52.2,48.7,30.32,WSW,245,0.0,3.0,88,0.00,,,0.00,0.0,meteohub,2013-04-06 06:22:00,
2013-04-05 23:27:00,52.2,48.7,30.32,WSW,245,1.0,3.0,88,0.00,,,0.00,0.0,meteohub,2013-04-06 06:27:00,
2013-04-05 23:32:00,52.2,49.1,30.32,WSW,245,0.0,3.0,89,0.00,,,0.00,0.0,meteohub,2013-04-06 06:32:00,
2013-04-05 23:42:00,52.3,49.3,30.32,SSW,204,3.0,3.0,89,0.00,,,0.00,0.0,meteohub,2013-04-06 06:42:00,
2013-04-05 23:47:00,52.3,49.3,30.32,SW,234,1.0,4.0,89,0.00,,,0.00,0.0,meteohub,2013-04-06 06:47:00,
2013-04-05 23:52:00,52.5,49.5,30.32,WSW,257,3.0,6.0,89,0.00,,,0.00,0.0,meteohub,2013-04-06 06:52:00,
2013-04-05 23:57:00,52.5,49.5,30.32,WSW,238,3.0,6.0,89,0.00,,,0.00,0.0,meteohub,2013-04-06 06:57:00,